createdAt,value
2023-08-11T00:00:14.695Z,100.00
2023-08-11T00:02:41.060Z,100.00
2023-08-11T00:05:07.388Z,100.00
2023-08-11T00:07:33.650Z,100.00
2023-08-11T00:09:59.930Z,100.00
2023-08-11T00:12:26.208Z,100.00
2023-08-11T00:14:52.462Z,100.00
2023-08-11T00:17:18.776Z,100.00
2023-08-11T00:19:45.044Z,100.00
2023-08-11T00:22:11.369Z,100.00
2023-08-11T00:24:37.717Z,100.00
2023-08-11T00:27:03.990Z,100.00
2023-08-11T00:29:30.264Z,100.00
2023-08-11T00:31:56.639Z,100.00
2023-08-11T00:34:22.931Z,100.00
2023-08-11T00:36:49.186Z,100.00
2023-08-11T00:39:15.483Z,100.00
2023-08-11T00:41:41.715Z,100.00
2023-08-11T00:44:07.983Z,100.00
2023-08-11T00:46:34.240Z,100.00
2023-08-11T00:49:00.509Z,100.00
2023-08-11T00:51:26.770Z,100.00
2023-08-11T00:53:53.163Z,100.00
2023-08-11T00:56:19.444Z,100.00
2023-08-11T00:58:45.716Z,100.00
2023-08-11T01:01:11.984Z,100.00
2023-08-11T01:03:38.649Z,100.00
2023-08-11T01:06:04.956Z,100.00
2023-08-11T01:08:31.246Z,100.00
2023-08-11T01:10:57.554Z,100.00
2023-08-11T01:13:23.799Z,100.00
2023-08-11T01:15:50.015Z,100.00
2023-08-11T01:18:16.218Z,100.00
2023-08-11T01:20:42.477Z,100.00
2023-08-11T01:23:08.775Z,100.00
2023-08-11T01:25:35.083Z,100.00
2023-08-11T01:28:01.428Z,100.00
2023-08-11T01:30:27.716Z,100.00
2023-08-11T01:32:53.985Z,100.00
2023-08-11T01:35:33.788Z,100.00
2023-08-11T01:38:06.483Z,100.00
2023-08-11T01:40:32.790Z,100.00
2023-08-11T01:42:59.139Z,100.00
2023-08-11T01:45:25.484Z,100.00
2023-08-11T01:47:51.766Z,100.00
2023-08-11T01:50:18.071Z,100.00
2023-08-11T01:52:44.326Z,100.00
2023-08-11T01:55:10.575Z,100.00
2023-08-11T01:57:39.288Z,100.00
2023-08-11T02:00:11.195Z,100.00
2023-08-11T02:02:37.585Z,100.00
2023-08-11T02:05:03.909Z,100.00
2023-08-11T02:07:30.206Z,100.00
2023-08-11T02:09:56.512Z,100.00
2023-08-11T02:12:22.797Z,100.00
2023-08-11T02:14:49.046Z,100.00
2023-08-11T02:17:15.733Z,100.00
2023-08-11T02:19:42.023Z,100.00
2023-08-11T02:22:08.429Z,100.00
2023-08-11T02:24:34.670Z,100.00
2023-08-11T02:27:01.070Z,100.00
2023-08-11T02:29:27.305Z,100.00
2023-08-11T02:31:53.639Z,100.00
2023-08-11T02:34:20.490Z,100.00
2023-08-11T02:36:46.804Z,100.00
2023-08-11T02:39:13.069Z,100.00
2023-08-11T02:41:39.317Z,100.00
2023-08-11T02:44:05.595Z,100.00
2023-08-11T02:46:31.837Z,100.00
2023-08-11T02:48:58.067Z,100.00
2023-08-11T02:51:24.345Z,100.00
2023-08-11T02:53:50.642Z,100.00
2023-08-11T02:56:16.892Z,100.00
2023-08-11T02:58:43.150Z,100.00
2023-08-11T03:01:09.444Z,100.00
2023-08-11T03:03:35.928Z,100.00
2023-08-11T03:06:02.329Z,100.00
2023-08-11T03:08:28.570Z,100.00
2023-08-11T03:10:57.255Z,100.00
2023-08-11T03:13:23.918Z,100.00
2023-08-11T03:15:50.201Z,100.00
2023-08-11T03:18:16.492Z,100.00
2023-08-11T03:20:42.777Z,100.00
2023-08-11T03:23:09.073Z,100.00
2023-08-11T03:25:35.356Z,100.00
2023-08-11T03:28:01.608Z,100.00
2023-08-11T03:30:27.902Z,100.00
2023-08-11T03:32:54.310Z,100.00
2023-08-11T03:35:20.719Z,100.00
2023-08-11T03:37:47.018Z,100.00
2023-08-11T03:40:13.274Z,100.00
2023-08-11T03:42:39.543Z,100.00
2023-08-11T03:45:05.824Z,100.00
2023-08-11T03:47:32.115Z,100.00
2023-08-11T03:49:58.381Z,100.00
2023-08-11T03:52:24.621Z,100.00
2023-08-11T03:54:50.924Z,100.00
2023-08-11T03:57:17.187Z,100.00
2023-08-11T03:59:43.473Z,100.00
2023-08-11T04:02:09.955Z,100.00
2023-08-11T04:04:36.515Z,100.00
2023-08-11T04:07:02.777Z,100.00
2023-08-11T04:09:29.022Z,100.00
2023-08-11T04:11:55.285Z,100.00
2023-08-11T04:14:21.637Z,100.00
2023-08-11T04:16:48.064Z,100.00
2023-08-11T04:19:14.319Z,100.00
2023-08-11T04:21:40.585Z,100.00
2023-08-11T04:24:06.835Z,100.00
2023-08-11T04:26:33.138Z,100.00
2023-08-11T04:28:59.435Z,100.00
2023-08-11T04:31:25.682Z,100.00
2023-08-11T04:33:51.986Z,100.00
2023-08-11T04:36:18.253Z,100.00
2023-08-11T04:38:44.584Z,99.91
2023-08-11T04:41:10.918Z,99.09
2023-08-11T04:43:37.173Z,99.22
2023-08-11T04:46:03.471Z,98.59
2023-08-11T04:48:29.749Z,98.50
2023-08-11T04:50:55.992Z,97.33
2023-08-11T04:53:22.331Z,95.32
2023-08-11T04:55:48.753Z,95.56
2023-08-11T04:58:15.072Z,94.84
2023-08-11T05:00:41.348Z,93.83
2023-08-11T05:03:07.712Z,93.58
2023-08-11T05:05:34.002Z,92.78
2023-08-11T05:08:00.435Z,92.88
2023-08-11T05:10:26.693Z,91.31
2023-08-11T05:12:53.005Z,90.44
2023-08-11T05:15:19.304Z,90.25
2023-08-11T05:17:45.591Z,88.42
2023-08-11T05:20:11.905Z,87.59
2023-08-11T05:22:38.177Z,87.67
2023-08-11T05:25:04.444Z,87.14
2023-08-11T05:27:30.678Z,87.33
2023-08-11T05:29:56.912Z,87.04
2023-08-11T05:32:23.217Z,87.45
2023-08-11T05:34:49.518Z,85.69
2023-08-11T05:37:15.822Z,85.66
2023-08-11T05:39:42.110Z,85.57
2023-08-11T05:42:08.423Z,86.02
2023-08-11T05:44:34.699Z,85.04
2023-08-11T05:47:01.010Z,85.50
2023-08-11T05:49:27.431Z,84.13
2023-08-11T05:51:53.716Z,83.45
2023-08-11T05:54:19.979Z,84.11
2023-08-11T05:56:46.232Z,83.58
2023-08-11T05:59:12.699Z,82.18
2023-08-11T06:01:39.315Z,81.67
2023-08-11T06:04:06.472Z,80.91
2023-08-11T06:06:34.565Z,80.59
2023-08-11T06:09:00.826Z,79.02
2023-08-11T06:11:27.120Z,77.82
2023-08-11T06:13:53.409Z,78.07
2023-08-11T06:16:19.759Z,77.84
2023-08-11T06:18:46.022Z,77.17
2023-08-11T06:21:12.293Z,77.88
2023-08-11T06:23:38.560Z,77.78
2023-08-11T06:26:04.819Z,77.04
2023-08-11T06:28:31.095Z,78.07
2023-08-11T06:30:59.652Z,78.04
2023-08-11T06:33:26.196Z,78.52
2023-08-11T06:35:52.454Z,77.00
2023-08-11T06:38:18.739Z,76.79
2023-08-11T06:40:44.999Z,78.97
2023-08-11T06:43:11.265Z,78.50
2023-08-11T06:45:37.620Z,79.23
2023-08-11T06:48:03.968Z,79.94
2023-08-11T06:50:30.259Z,78.73
2023-08-11T06:52:59.307Z,79.94
2023-08-11T06:55:26.679Z,78.39
2023-08-11T06:57:53.035Z,78.26
2023-08-11T07:00:19.618Z,78.76
2023-08-11T07:02:46.011Z,77.69
2023-08-11T07:05:12.368Z,77.46
2023-08-11T07:07:38.666Z,78.35
2023-08-11T07:10:04.948Z,79.20
2023-08-11T07:12:31.185Z,78.61
2023-08-11T07:14:57.722Z,77.36
2023-08-11T07:17:24.038Z,78.04
2023-08-11T07:19:50.308Z,79.41
2023-08-11T07:22:16.609Z,80.81
2023-08-11T07:24:42.883Z,80.19
2023-08-11T07:27:09.214Z,81.07
2023-08-11T07:29:35.688Z,79.15
2023-08-11T07:32:02.505Z,80.48
2023-08-11T07:34:28.913Z,78.65
2023-08-11T07:36:55.136Z,78.42
2023-08-11T07:39:23.847Z,79.34
2023-08-11T07:41:50.215Z,80.45
2023-08-11T07:44:16.575Z,80.80
2023-08-11T07:46:42.966Z,80.69
2023-08-11T07:49:09.331Z,80.70
2023-08-11T07:51:35.627Z,80.51
2023-08-11T07:54:02.023Z,79.92
2023-08-11T07:56:28.335Z,78.22
2023-08-11T07:58:54.613Z,79.00
2023-08-11T08:01:21.057Z,79.61
2023-08-11T08:03:47.513Z,80.83
2023-08-11T08:06:14.104Z,77.78
2023-08-11T08:08:40.417Z,76.95
2023-08-11T08:11:06.723Z,78.41
2023-08-11T08:13:33.420Z,76.93
2023-08-11T08:15:59.751Z,78.04
2023-08-11T08:18:26.026Z,76.98
2023-08-11T08:20:52.299Z,77.77
2023-08-11T08:23:18.709Z,74.86
2023-08-11T08:25:45.133Z,76.14
2023-08-11T08:28:11.421Z,77.66
2023-08-11T08:30:37.680Z,78.79
2023-08-11T08:33:04.075Z,75.88
2023-08-11T08:35:30.393Z,74.79
2023-08-11T08:37:56.627Z,73.57
2023-08-11T08:40:22.895Z,74.01
2023-08-11T08:42:49.128Z,75.00
2023-08-11T08:45:15.385Z,74.88
2023-08-11T08:47:41.795Z,75.91
2023-08-11T08:50:08.095Z,76.26
2023-08-11T08:52:34.330Z,76.51
2023-08-11T08:55:00.551Z,76.33
2023-08-11T08:57:26.856Z,75.36
2023-08-11T08:59:53.180Z,76.09
2023-08-11T09:02:19.521Z,75.55
2023-08-11T09:04:45.853Z,75.54
2023-08-11T09:07:12.372Z,76.41
2023-08-11T09:09:38.805Z,78.51
2023-08-11T09:12:05.165Z,76.54
2023-08-11T09:14:31.581Z,73.76
2023-08-11T09:16:59.761Z,74.71
2023-08-11T09:19:26.058Z,74.17
2023-08-11T09:21:52.394Z,74.64
2023-08-11T09:24:18.743Z,75.52
2023-08-11T09:26:45.023Z,73.30
2023-08-11T09:29:11.315Z,70.68
2023-08-11T09:31:37.806Z,70.68
2023-08-11T09:34:04.059Z,71.33
2023-08-11T09:36:30.343Z,69.82
2023-08-11T09:38:56.608Z,68.97
2023-08-11T09:41:22.865Z,70.70
2023-08-11T09:43:49.105Z,69.65
2023-08-11T09:46:25.574Z,68.53
2023-08-11T09:48:54.889Z,69.38
2023-08-11T09:51:21.539Z,69.51
2023-08-11T09:53:47.835Z,68.80
2023-08-11T09:56:14.084Z,67.68
2023-08-11T09:58:40.344Z,66.16
2023-08-11T10:01:14.953Z,65.34
2023-08-11T10:03:45.463Z,62.87
2023-08-11T10:06:11.849Z,63.51
2023-08-11T10:08:38.251Z,62.49
2023-08-11T10:11:04.523Z,61.19
2023-08-11T10:13:30.947Z,61.35
2023-08-11T10:16:00.048Z,59.72
2023-08-11T10:18:26.403Z,58.52
2023-08-11T10:20:52.721Z,58.21
2023-08-11T10:23:19.037Z,57.63
2023-08-11T10:25:45.328Z,57.39
2023-08-11T10:28:11.575Z,59.65
2023-08-11T10:30:37.868Z,56.08
2023-08-11T10:33:06.057Z,56.07
2023-08-11T10:35:33.874Z,55.27
2023-08-11T10:38:00.116Z,56.49
2023-08-11T10:40:26.383Z,54.13
2023-08-11T10:42:52.703Z,54.75
2023-08-11T10:45:18.988Z,53.90
2023-08-11T10:47:45.360Z,53.91
2023-08-11T10:50:11.645Z,51.74
2023-08-11T10:52:40.887Z,49.11
2023-08-11T10:55:07.307Z,48.96
2023-08-11T10:57:33.575Z,50.74
2023-08-11T10:59:59.859Z,48.94
2023-08-11T11:02:26.127Z,48.04
2023-08-11T11:04:52.464Z,46.40
2023-08-11T11:07:18.744Z,49.34
2023-08-11T11:09:44.993Z,47.82
2023-08-11T11:12:11.977Z,48.26
2023-08-11T11:14:40.681Z,47.95
2023-08-11T11:17:07.164Z,46.84
2023-08-11T11:19:33.538Z,44.96
2023-08-11T11:21:59.817Z,45.39
2023-08-11T11:24:26.049Z,47.01
2023-08-11T11:26:52.322Z,45.73
2023-08-11T11:29:18.592Z,46.00
2023-08-11T11:31:44.923Z,45.27
2023-08-11T11:34:11.255Z,43.43
2023-08-11T11:36:37.725Z,43.12
2023-08-11T11:39:06.107Z,43.32
2023-08-11T11:41:32.638Z,44.40
2023-08-11T11:43:58.897Z,43.64
2023-08-11T11:46:25.345Z,44.38
2023-08-11T11:48:51.737Z,45.11
2023-08-11T11:51:18.030Z,43.81
2023-08-11T11:53:44.299Z,43.35
2023-08-11T11:56:10.583Z,43.01
2023-08-11T11:58:36.866Z,43.05
2023-08-11T12:01:03.874Z,42.42
2023-08-11T12:03:30.165Z,42.83
2023-08-11T12:05:56.458Z,43.68
2023-08-11T12:08:22.723Z,42.60
2023-08-11T12:10:49.002Z,42.73
2023-08-11T12:13:15.291Z,42.89
2023-08-11T12:15:41.964Z,42.33
2023-08-11T12:18:08.389Z,41.76
2023-08-11T12:20:34.691Z,41.59
2023-08-11T12:23:00.988Z,41.63
2023-08-11T12:25:27.238Z,43.94
2023-08-11T12:27:53.515Z,41.82
2023-08-11T12:30:19.805Z,39.91
2023-08-11T12:32:46.241Z,40.37
2023-08-11T12:35:14.069Z,41.15
2023-08-11T12:37:40.289Z,39.27
2023-08-11T12:40:06.569Z,40.69
2023-08-11T12:42:32.847Z,39.42
2023-08-11T12:44:59.136Z,40.05
2023-08-11T12:47:25.428Z,40.02
2023-08-11T12:49:51.716Z,40.07
2023-08-11T12:52:18.779Z,38.91
2023-08-11T12:54:45.047Z,41.22
2023-08-11T12:57:11.359Z,39.32
2023-08-11T12:59:39.262Z,39.52
2023-08-11T13:02:05.668Z,40.51
2023-08-11T13:04:32.139Z,39.42
2023-08-11T13:07:00.716Z,40.48
2023-08-11T13:09:27.379Z,38.66
2023-08-11T13:11:53.638Z,39.29
2023-08-11T13:14:22.426Z,41.73
2023-08-11T13:16:48.907Z,40.22
2023-08-11T13:19:15.169Z,39.28
2023-08-11T13:21:41.483Z,40.51
2023-08-11T13:24:07.727Z,39.88
2023-08-11T13:26:33.951Z,39.89
2023-08-11T13:29:00.246Z,40.60
2023-08-11T13:31:26.545Z,41.72
2023-08-11T13:33:52.828Z,40.87
2023-08-11T13:36:19.257Z,40.37
2023-08-11T13:38:45.557Z,39.78
2023-08-11T13:41:11.853Z,40.61
2023-08-11T13:43:38.189Z,39.87
2023-08-11T13:46:04.499Z,40.83
2023-08-11T13:48:30.972Z,40.79
2023-08-11T13:50:57.444Z,41.72
2023-08-11T13:53:23.756Z,40.63
2023-08-11T13:55:50.038Z,39.91
2023-08-11T13:58:16.319Z,40.20
2023-08-11T14:00:42.615Z,41.07
2023-08-11T14:03:08.936Z,41.17
2023-08-11T14:05:35.238Z,41.93
2023-08-11T14:08:01.732Z,40.79
2023-08-11T14:10:27.992Z,42.35
2023-08-11T14:12:54.301Z,41.79
2023-08-11T14:15:20.584Z,43.41
2023-08-11T14:17:46.923Z,41.78
2023-08-11T14:20:13.307Z,42.26
2023-08-11T14:22:39.598Z,42.14
2023-08-11T14:25:05.880Z,43.00
2023-08-11T14:27:32.223Z,43.73
2023-08-11T14:29:58.486Z,43.83
2023-08-11T14:32:26.495Z,42.99
2023-08-11T14:34:53.110Z,44.32
2023-08-11T14:37:19.425Z,44.35
2023-08-11T14:39:45.817Z,44.77
2023-08-11T14:42:12.424Z,43.48
2023-08-11T14:44:40.675Z,44.58
2023-08-11T14:47:06.976Z,44.55
2023-08-11T14:49:33.270Z,45.30
2023-08-11T14:51:59.620Z,44.58
2023-08-11T14:54:27.765Z,44.81
2023-08-11T14:56:54.355Z,45.02
2023-08-11T14:59:20.636Z,45.59
2023-08-11T15:01:46.929Z,46.51
2023-08-11T15:04:13.208Z,46.38
2023-08-11T15:06:39.509Z,46.48
2023-08-11T15:09:05.842Z,47.40
2023-08-11T15:11:32.153Z,46.23
2023-08-11T15:13:58.405Z,46.52
2023-08-11T15:16:24.760Z,46.56
2023-08-11T15:18:51.067Z,46.57
2023-08-11T15:21:17.341Z,48.68
2023-08-11T15:23:43.574Z,49.07
2023-08-11T15:26:09.860Z,49.41
2023-08-11T15:28:36.126Z,49.38
2023-08-11T15:31:02.403Z,48.84
2023-08-11T15:33:28.750Z,46.84
2023-08-11T15:35:55.174Z,47.82
2023-08-11T15:38:22.759Z,46.95
2023-08-11T15:40:49.185Z,47.01
2023-08-11T15:43:15.433Z,48.04
2023-08-11T15:45:41.712Z,45.37
2023-08-11T15:48:08.048Z,46.04
2023-08-11T15:50:34.533Z,47.06
2023-08-11T15:53:00.830Z,47.57
2023-08-11T15:55:36.063Z,47.77
2023-08-11T15:58:03.169Z,46.76
2023-08-11T16:00:29.450Z,46.43
2023-08-11T16:02:55.907Z,47.28
2023-08-11T16:05:22.299Z,46.52
2023-08-11T16:07:48.599Z,47.05
2023-08-11T16:10:14.825Z,48.39
2023-08-11T16:12:41.077Z,48.59
2023-08-11T16:15:07.339Z,49.20
2023-08-11T16:17:34.251Z,48.90
2023-08-11T16:20:00.599Z,49.53
2023-08-11T16:22:26.842Z,49.78
2023-08-11T16:24:53.118Z,49.19
2023-08-11T16:27:19.395Z,47.87
2023-08-11T16:29:45.691Z,46.51
2023-08-11T16:32:12.173Z,47.77
2023-08-11T16:34:38.702Z,49.75
2023-08-11T16:37:05.351Z,51.53
2023-08-11T16:39:31.610Z,50.90
2023-08-11T16:41:57.856Z,51.04
2023-08-11T16:44:24.103Z,50.38
2023-08-11T16:46:50.430Z,51.14
2023-08-11T16:49:16.828Z,48.91
2023-08-11T16:51:43.129Z,51.14
2023-08-11T16:54:09.464Z,51.27
2023-08-11T16:56:35.756Z,51.14
2023-08-11T16:59:01.983Z,50.71
2023-08-11T17:01:28.364Z,49.81
2023-08-11T17:03:54.762Z,48.89
2023-08-11T17:06:21.361Z,47.72
2023-08-11T17:08:47.850Z,48.26
2023-08-11T17:11:14.130Z,48.25
2023-08-11T17:13:40.373Z,48.71
2023-08-11T17:16:06.690Z,47.06
2023-08-11T17:18:33.156Z,48.25
2023-08-11T17:20:59.418Z,48.15
2023-08-11T17:23:25.710Z,48.89
2023-08-11T17:25:52.068Z,50.31
2023-08-11T17:28:18.369Z,50.74
2023-08-11T17:30:44.713Z,50.41
2023-08-11T17:33:11.010Z,50.82
2023-08-11T17:35:37.267Z,51.12
2023-08-11T17:38:03.646Z,51.90
2023-08-11T17:40:29.972Z,51.63
2023-08-11T17:42:56.379Z,51.51
2023-08-11T17:45:22.966Z,52.43
2023-08-11T17:47:49.322Z,53.78
2023-08-11T17:50:15.620Z,55.22
2023-08-11T17:52:42.471Z,56.97
2023-08-11T17:55:08.773Z,59.57
2023-08-11T17:57:35.030Z,61.85
2023-08-11T18:00:01.332Z,62.14
2023-08-11T18:02:27.727Z,62.50
2023-08-11T18:04:54.061Z,63.43
2023-08-11T18:07:20.285Z,66.83
2023-08-11T18:09:46.554Z,69.09
2023-08-11T18:12:13.013Z,70.74
2023-08-11T18:14:40.737Z,70.93
2023-08-11T18:17:07.193Z,71.89
2023-08-11T18:19:33.914Z,72.31
2023-08-11T18:22:00.160Z,73.65
2023-08-11T18:24:26.461Z,75.00
2023-08-11T18:26:52.777Z,74.85
2023-08-11T18:29:19.141Z,75.63
2023-08-11T18:31:45.952Z,75.94
2023-08-11T18:34:12.416Z,76.16
2023-08-11T18:36:38.702Z,76.45
2023-08-11T18:39:05.009Z,78.11
2023-08-11T18:41:31.289Z,78.09
2023-08-11T18:43:57.565Z,78.88
2023-08-11T18:46:23.925Z,77.65
2023-08-11T18:48:50.248Z,74.00
2023-08-11T18:51:16.559Z,72.81
2023-08-11T18:53:42.869Z,76.35
2023-08-11T18:56:09.097Z,76.16
2023-08-11T18:58:35.364Z,76.83
2023-08-11T19:01:01.585Z,77.60
2023-08-11T19:03:27.946Z,77.73
2023-08-11T19:05:54.281Z,79.26
2023-08-11T19:08:20.700Z,80.19
2023-08-11T19:10:47.080Z,81.25
2023-08-11T19:13:13.347Z,81.15
2023-08-11T19:15:39.740Z,82.15
2023-08-11T19:18:06.142Z,81.90
2023-08-11T19:20:32.645Z,82.80
2023-08-11T19:23:01.561Z,83.55
2023-08-11T19:25:28.004Z,82.62
2023-08-11T19:27:54.385Z,80.19
2023-08-11T19:30:20.773Z,81.75
2023-08-11T19:32:47.117Z,80.70
2023-08-11T19:35:13.367Z,81.39
2023-08-11T19:37:39.670Z,79.92
2023-08-11T19:40:05.953Z,81.83
2023-08-11T19:42:32.235Z,82.52
2023-08-11T19:44:58.591Z,83.67
2023-08-11T19:47:24.871Z,82.35
2023-08-11T19:49:51.183Z,82.61
2023-08-11T19:52:17.615Z,82.37
2023-08-11T19:54:43.939Z,82.26
2023-08-11T19:57:10.446Z,82.45
2023-08-11T19:59:37.072Z,82.04
2023-08-11T20:02:03.374Z,79.98
2023-08-11T20:04:29.779Z,79.72
2023-08-11T20:06:56.129Z,80.50
2023-08-11T20:09:22.409Z,79.97
2023-08-11T20:11:48.728Z,80.29
2023-08-11T20:14:14.989Z,80.85
2023-08-11T20:16:41.291Z,80.95
2023-08-11T20:19:07.574Z,79.82
2023-08-11T20:21:33.830Z,79.15
2023-08-11T20:24:00.123Z,78.99
2023-08-11T20:26:26.441Z,79.14
2023-08-11T20:28:52.694Z,81.37
2023-08-11T20:31:18.969Z,80.88
2023-08-11T20:33:45.318Z,81.38
2023-08-11T20:36:11.687Z,82.67
2023-08-11T20:38:39.366Z,83.56
2023-08-11T20:41:05.825Z,81.72
2023-08-11T20:43:32.100Z,81.92
2023-08-11T20:45:58.532Z,81.38
2023-08-11T20:48:24.826Z,80.68
2023-08-11T20:50:51.129Z,80.90
2023-08-11T20:53:17.424Z,82.99
2023-08-11T20:55:43.674Z,82.56
2023-08-11T20:58:09.930Z,81.89
2023-08-11T21:00:36.199Z,80.91
2023-08-11T21:03:02.530Z,81.99
2023-08-11T21:05:28.806Z,82.99
2023-08-11T21:07:55.054Z,83.28
2023-08-11T21:10:22.500Z,83.10
2023-08-11T21:12:48.732Z,82.89
2023-08-11T21:15:15.007Z,83.84
2023-08-11T21:17:41.293Z,84.27
2023-08-11T21:20:07.551Z,84.71
2023-08-11T21:22:33.837Z,85.11
2023-08-11T21:25:00.158Z,84.59
2023-08-11T21:27:26.469Z,85.77
2023-08-11T21:29:52.735Z,87.24
2023-08-11T21:32:21.198Z,87.09
2023-08-11T21:34:48.865Z,87.88
2023-08-11T21:37:15.091Z,88.10
2023-08-11T21:39:41.333Z,88.58
2023-08-11T21:42:07.707Z,88.70
2023-08-11T21:44:33.970Z,89.97
2023-08-11T21:47:00.247Z,90.74
2023-08-11T21:49:26.567Z,90.66
2023-08-11T21:51:53.045Z,91.29
2023-08-11T21:54:19.329Z,91.10
2023-08-11T21:56:45.640Z,90.76
2023-08-11T21:59:12.033Z,90.68
2023-08-11T22:01:38.273Z,90.83
2023-08-11T22:04:04.573Z,91.03
2023-08-11T22:06:30.943Z,91.71
2023-08-11T22:08:57.344Z,90.65
2023-08-11T22:11:36.077Z,91.07
2023-08-11T22:14:03.026Z,91.03
2023-08-11T22:16:29.352Z,91.37
2023-08-11T22:18:55.749Z,90.17
2023-08-11T22:21:22.014Z,89.52
2023-08-11T22:23:48.308Z,85.72
2023-08-11T22:26:14.642Z,86.94
2023-08-11T22:28:40.928Z,88.58
2023-08-11T22:31:07.203Z,89.52
2023-08-11T22:33:33.494Z,85.14
2023-08-11T22:35:59.833Z,83.27
2023-08-11T22:38:26.101Z,82.04
2023-08-11T22:40:52.334Z,82.40
2023-08-11T22:43:18.609Z,82.70
2023-08-11T22:45:44.958Z,81.20
2023-08-11T22:48:11.397Z,81.63
2023-08-11T22:50:38.100Z,82.03
2023-08-11T22:53:04.352Z,82.50
2023-08-11T22:55:30.622Z,81.53
2023-08-11T22:57:56.893Z,82.01
2023-08-11T23:00:23.204Z,87.23
2023-08-11T23:02:49.543Z,91.33
2023-08-11T23:05:15.857Z,93.75
2023-08-11T23:07:42.123Z,99.58
2023-08-11T23:10:08.420Z,100.00
2023-08-11T23:12:34.698Z,100.00
2023-08-11T23:15:00.970Z,100.00
2023-08-11T23:17:27.275Z,100.00
2023-08-11T23:19:53.691Z,100.00
2023-08-11T23:22:19.933Z,100.00
2023-08-11T23:24:46.162Z,100.00
2023-08-11T23:27:12.678Z,100.00
2023-08-11T23:29:40.776Z,100.00
2023-08-11T23:32:07.795Z,100.00
2023-08-11T23:34:34.105Z,100.00
2023-08-11T23:37:00.391Z,100.00
2023-08-11T23:39:26.694Z,100.00
2023-08-11T23:41:53.116Z,100.00
2023-08-11T23:44:19.403Z,100.00
2023-08-11T23:46:45.663Z,100.00
2023-08-11T23:49:12.072Z,100.00
2023-08-11T23:51:40.565Z,100.00
2023-08-11T23:54:06.832Z,100.00
2023-08-11T23:56:33.118Z,100.00
2023-08-11T23:58:59.352Z,100.00
